sensor_id;sensor_type;location;lat;lon;timestamp;pressure;altitude;pressure_sealevel;temperature;humidity
41306;BME280;27051;50.376;19.152;2022-09-09T00:04:19;97822.10;;;18.81;70.67
41306;BME280;27051;50.376;19.152;2022-09-09T00:07:01;97821.30;;;18.84;70.73
41306;BME280;27051;50.376;19.152;2022-09-09T00:15:18;97820.58;;;18.73;70.64
41306;BME280;27051;50.376;19.152;2022-09-09T00:17:52;97823.91;;;18.69;70.83
41306;BME280;27051;50.376;19.152;2022-09-09T00:20:47;97819.23;;;18.70;70.81
41306;BME280;27051;50.376;19.152;2022-09-09T00:23:30;97824.89;;;18.67;70.83
41306;BME280;27051;50.376;19.152;2022-09-09T00:31:49;97824.89;;;18.67;70.96
41306;BME280;27051;50.376;19.152;2022-09-09T00:34:20;97821.94;;;18.77;70.97
41306;BME280;27051;50.376;19.152;2022-09-09T00:36:49;97823.30;;;18.73;71.05
41306;BME280;27051;50.376;19.152;2022-09-09T00:39:42;97827.19;;;18.72;70.92
41306;BME280;27051;50.376;19.152;2022-09-09T00:42:16;97820.16;;;18.75;70.95
41306;BME280;27051;50.376;19.152;2022-09-09T00:44:51;97820.58;;;18.77;71.06
41306;BME280;27051;50.376;19.152;2022-09-09T00:47:51;97825.38;;;18.84;70.99
41306;BME280;27051;50.376;19.152;2022-09-09T00:58:43;97834.27;;;18.96;70.90
41306;BME280;27051;50.376;19.152;2022-09-09T01:01:12;97828.61;;;18.95;70.77
41306;BME280;27051;50.376;19.152;2022-09-09T01:14:44;97850.52;;;19.03;70.85
41306;BME280;27051;50.376;19.152;2022-09-09T01:17:26;97851.49;;;19.04;70.76
41306;BME280;27051;50.376;19.152;2022-09-09T01:23:20;97861.19;;;19.09;70.78
41306;BME280;27051;50.376;19.152;2022-09-09T01:26:28;97865.06;;;19.12;71.03
41306;BME280;27051;50.376;19.152;2022-09-09T01:29:04;97859.20;;;19.13;70.75
41306;BME280;27051;50.376;19.152;2022-09-09T01:31:51;97864.63;;;19.17;70.90
41306;BME280;27051;50.376;19.152;2022-09-09T01:34:30;97864.80;;;19.21;70.95
41306;BME280;27051;50.376;19.152;2022-09-09T01:37:07;97865.52;;;19.25;70.77
41306;BME280;27051;50.376;19.152;2022-09-09T01:39:36;97869.81;;;19.26;70.73
41306;BME280;27051;50.376;19.152;2022-09-09T01:42:06;97861.81;;;19.27;71.08
41306;BME280;27051;50.376;19.152;2022-09-09T01:44:35;97861.22;;;19.28;70.89
41306;BME280;27051;50.376;19.152;2022-09-09T01:47:03;97867.86;;;19.27;71.01
41306;BME280;27051;50.376;19.152;2022-09-09T01:49:31;97867.52;;;19.21;70.80
41306;BME280;27051;50.376;19.152;2022-09-09T01:51:59;97866.94;;;19.18;70.83
41306;BME280;27051;50.376;19.152;2022-09-09T01:54:28;97870.04;;;19.20;71.06
41306;BME280;27051;50.376;19.152;2022-09-09T02:05:30;97867.37;;;19.13;70.83
41306;BME280;27051;50.376;19.152;2022-09-09T02:08:36;97873.25;;;19.08;70.80
41306;BME280;27051;50.376;19.152;2022-09-09T02:11:06;97876.17;;;19.09;70.89
41306;BME280;27051;50.376;19.152;2022-09-09T02:13:44;97875.41;;;19.08;70.90
41306;BME280;27051;50.376;19.152;2022-09-09T02:16:30;97875.19;;;19.11;71.11
41306;BME280;27051;50.376;19.152;2022-09-09T02:19:22;97875.53;;;19.17;70.96
41306;BME280;27051;50.376;19.152;2022-09-09T02:21:52;97882.72;;;19.19;70.97
41306;BME280;27051;50.376;19.152;2022-09-09T02:24:22;97880.71;;;19.26;70.98
41306;BME280;27051;50.376;19.152;2022-09-09T02:26:51;97879.20;;;19.18;70.61
41306;BME280;27051;50.376;19.152;2022-09-09T02:29:25;97882.94;;;19.16;70.91
41306;BME280;27051;50.376;19.152;2022-09-09T02:31:57;97887.84;;;19.09;70.90
41306;BME280;27051;50.376;19.152;2022-09-09T02:34:26;97888.64;;;19.06;70.95
41306;BME280;27051;50.376;19.152;2022-09-09T02:36:53;97894.26;;;19.11;70.89
41306;BME280;27051;50.376;19.152;2022-09-09T02:39:22;97898.56;;;19.05;70.91
41306;BME280;27051;50.376;19.152;2022-09-09T02:41:49;97902.09;;;19.02;70.92
41306;BME280;27051;50.376;19.152;2022-09-09T02:44:17;97902.47;;;19.04;70.91
41306;BME280;27051;50.376;19.152;2022-09-09T02:50:13;97902.69;;;18.98;70.80
41306;BME280;27051;50.376;19.152;2022-09-09T02:53:15;97908.98;;;18.87;70.59
41306;BME280;27051;50.376;19.152;2022-09-09T02:55:50;97916.21;;;18.82;70.80
41306;BME280;27051;50.376;19.152;2022-09-09T02:58:24;97913.55;;;18.75;70.72
41306;BME280;27051;50.376;19.152;2022-09-09T03:00:52;97918.02;;;18.70;70.92
41306;BME280;27051;50.376;19.152;2022-09-09T03:03:19;97922.48;;;18.76;71.09
41306;BME280;27051;50.376;19.152;2022-09-09T03:05:46;97925.39;;;18.80;71.08
41306;BME280;27051;50.376;19.152;2022-09-09T03:08:13;97929.83;;;18.82;71.08
41306;BME280;27051;50.376;19.152;2022-09-09T03:10:40;97927.91;;;18.79;70.71
41306;BME280;27051;50.376;19.152;2022-09-09T03:13:07;97930.63;;;18.79;70.86
41306;BME280;27051;50.376;19.152;2022-09-09T03:15:35;97938.38;;;18.84;70.91
41306;BME280;27051;50.376;19.152;2022-09-09T03:18:02;97940.68;;;18.90;70.83
41306;BME280;27051;50.376;19.152;2022-09-09T03:20:30;97937.61;;;18.84;70.70
41306;BME280;27051;50.376;19.152;2022-09-09T03:22:59;97932.72;;;18.87;70.82
41306;BME280;27051;50.376;19.152;2022-09-09T03:25:26;97940.09;;;18.90;70.66
41306;BME280;27051;50.376;19.152;2022-09-09T03:27:54;97933.48;;;18.91;70.91
41306;BME280;27051;50.376;19.152;2022-09-09T03:30:22;97938.09;;;18.98;70.83
41306;BME280;27051;50.376;19.152;2022-09-09T03:32:50;97937.88;;;19.04;70.62
41306;BME280;27051;50.376;19.152;2022-09-09T03:35:17;97935.93;;;19.04;70.38
41306;BME280;27051;50.376;19.152;2022-09-09T03:37:44;97936.14;;;19.02;70.41
41306;BME280;27051;50.376;19.152;2022-09-09T03:40:11;97934.01;;;19.01;70.38
41306;BME280;27051;50.376;19.152;2022-09-09T03:42:39;97938.69;;;18.97;70.09
41306;BME280;27051;50.376;19.152;2022-09-09T03:45:09;97941.66;;;18.91;70.34
41306;BME280;27051;50.376;19.152;2022-09-09T03:47:36;97943.23;;;18.89;70.25
41306;BME280;27051;50.376;19.152;2022-09-09T03:50:03;97947.52;;;18.82;70.12
41306;BME280;27051;50.376;19.152;2022-09-09T03:52:40;97953.97;;;18.80;70.07
41306;BME280;27051;50.376;19.152;2022-09-09T03:55:08;97953.00;;;18.79;70.14
41306;BME280;27051;50.376;19.152;2022-09-09T03:57:35;97950.06;;;18.74;70.12
41306;BME280;27051;50.376;19.152;2022-09-09T04:00:04;97958.47;;;18.75;70.20
41306;BME280;27051;50.376;19.152;2022-09-09T04:02:31;97956.70;;;18.77;70.25
41306;BME280;27051;50.376;19.152;2022-09-09T04:04:58;97958.23;;;18.81;70.10
41306;BME280;27051;50.376;19.152;2022-09-09T04:07:25;97957.26;;;18.83;70.01
41306;BME280;27051;50.376;19.152;2022-09-09T04:09:51;97954.92;;;18.82;69.88
41306;BME280;27051;50.376;19.152;2022-09-09T04:12:18;97962.32;;;18.81;69.95
41306;BME280;27051;50.376;19.152;2022-09-09T04:14:45;97958.06;;;18.80;69.98
41306;BME280;27051;50.376;19.152;2022-09-09T04:17:11;97966.78;;;18.80;69.83
41306;BME280;27051;50.376;19.152;2022-09-09T04:19:38;97960.19;;;18.77;69.86
41306;BME280;27051;50.376;19.152;2022-09-09T04:22:05;97959.23;;;18.69;69.70
41306;BME280;27051;50.376;19.152;2022-09-09T04:24:31;97959.03;;;18.71;69.95
41306;BME280;27051;50.376;19.152;2022-09-09T04:26:58;97955.34;;;18.73;69.83
41306;BME280;27051;50.376;19.152;2022-09-09T04:29:24;97962.94;;;18.70;69.59
41306;BME280;27051;50.376;19.152;2022-09-09T04:31:51;97963.14;;;18.64;69.66
41306;BME280;27051;50.376;19.152;2022-09-09T04:34:18;97960.66;;;18.58;69.54
41306;BME280;27051;50.376;19.152;2022-09-09T04:36:45;97961.06;;;18.49;69.66
41306;BME280;27051;50.376;19.152;2022-09-09T04:39:11;97958.55;;;18.47;69.73
41306;BME280;27051;50.376;19.152;2022-09-09T04:41:38;97962.84;;;18.48;69.67
41306;BME280;27051;50.376;19.152;2022-09-09T04:44:05;97965.73;;;18.49;69.66
41306;BME280;27051;50.376;19.152;2022-09-09T04:46:31;97962.84;;;18.48;69.72
41306;BME280;27051;50.376;19.152;2022-09-09T04:48:58;97962.06;;;18.47;69.71
41306;BME280;27051;50.376;19.152;2022-09-09T04:51:25;97962.65;;;18.43;69.60
41306;BME280;27051;50.376;19.152;2022-09-09T04:53:51;97967.11;;;18.41;69.71
41306;BME280;27051;50.376;19.152;2022-09-09T04:56:19;97964.63;;;18.35;69.68
41306;BME280;27051;50.376;19.152;2022-09-09T04:58:46;97968.70;;;18.35;69.82
41306;BME280;27051;50.376;19.152;2022-09-09T05:01:20;97970.45;;;18.37;69.93
41306;BME280;27051;50.376;19.152;2022-09-09T05:03:48;97969.66;;;18.40;69.84
41306;BME280;27051;50.376;19.152;2022-09-09T05:06:17;97975.69;;;18.40;69.74
41306;BME280;27051;50.376;19.152;2022-09-09T05:08:45;97982.30;;;18.35;69.77
41306;BME280;27051;50.376;19.152;2022-09-09T05:11:23;97983.84;;;18.36;69.86
41306;BME280;27051;50.376;19.152;2022-09-09T05:13:52;97985.21;;;18.40;69.87
41306;BME280;27051;50.376;19.152;2022-09-09T05:16:20;97982.29;;;18.42;69.88
41306;BME280;27051;50.376;19.152;2022-09-09T05:18:48;97979.75;;;18.43;69.87
41306;BME280;27051;50.376;19.152;2022-09-09T05:21:16;97985.97;;;18.48;69.94
41306;BME280;27051;50.376;19.152;2022-09-09T05:23:45;97987.50;;;18.49;69.83
41306;BME280;27051;50.376;19.152;2022-09-09T05:26:14;97980.72;;;18.45;69.92
41306;BME280;27051;50.376;19.152;2022-09-09T05:28:42;97989.43;;;18.52;69.93
41306;BME280;27051;50.376;19.152;2022-09-09T05:31:11;97990.03;;;18.55;69.92
41306;BME280;27051;50.376;19.152;2022-09-09T05:33:40;97995.83;;;18.60;69.89
41306;BME280;27051;50.376;19.152;2022-09-09T05:36:13;97997.96;;;18.61;69.82
41306;BME280;27051;50.376;19.152;2022-09-09T05:38:38;97997.02;;;18.56;69.79
41306;BME280;27051;50.376;19.152;2022-09-09T05:41:06;97992.56;;;18.50;69.80
41306;BME280;27051;50.376;19.152;2022-09-09T05:43:34;97999.16;;;18.49;69.95
41306;BME280;27051;50.376;19.152;2022-09-09T05:46:09;97991.56;;;18.56;70.13
41306;BME280;27051;50.376;19.152;2022-09-09T05:48:40;98003.59;;;18.65;70.10
41306;BME280;27051;50.376;19.152;2022-09-09T05:51:10;97995.61;;;18.66;69.66
41306;BME280;27051;50.376;19.152;2022-09-09T05:53:39;97996.78;;;18.62;69.98
41306;BME280;27051;50.376;19.152;2022-09-09T05:56:07;97999.71;;;18.63;69.85
41306;BME280;27051;50.376;19.152;2022-09-09T05:58:36;97997.94;;;18.64;69.82
41306;BME280;27051;50.376;19.152;2022-09-09T06:01:11;97995.61;;;18.70;69.98
41306;BME280;27051;50.376;19.152;2022-09-09T06:03:40;98001.44;;;18.76;69.95
41306;BME280;27051;50.376;19.152;2022-09-09T06:06:10;98001.80;;;18.81;69.96
41306;BME280;27051;50.376;19.152;2022-09-09T06:08:40;98004.31;;;18.84;69.91
41306;BME280;27051;50.376;19.152;2022-09-09T06:11:17;98001.39;;;18.86;70.00
41306;BME280;27051;50.376;19.152;2022-09-09T06:13:46;98002.72;;;18.90;69.88
41306;BME280;27051;50.376;19.152;2022-09-09T06:16:17;98005.44;;;18.90;69.92
41306;BME280;27051;50.376;19.152;2022-09-09T06:18:44;98007.75;;;18.95;70.09
41306;BME280;27051;50.376;19.152;2022-09-09T06:21:16;98011.86;;;18.92;69.72
41306;BME280;27051;50.376;19.152;2022-09-09T06:23:44;98005.03;;;18.95;69.96
41306;BME280;27051;50.376;19.152;2022-09-09T06:26:22;98007.19;;;18.96;69.79
41306;BME280;27051;50.376;19.152;2022-09-09T06:28:52;98004.05;;;19.01;69.79
41306;BME280;27051;50.376;19.152;2022-09-09T06:31:22;98000.67;;;19.12;70.04
41306;BME280;27051;50.376;19.152;2022-09-09T06:33:50;98005.28;;;19.22;69.83
41306;BME280;27051;50.376;19.152;2022-09-09T06:36:30;98006.25;;;19.24;69.46
41306;BME280;27051;50.376;19.152;2022-09-09T06:39:01;98010.13;;;19.26;69.74
41306;BME280;27051;50.376;19.152;2022-09-09T06:41:29;98012.78;;;19.37;70.03
41306;BME280;27051;50.376;19.152;2022-09-09T06:43:58;98009.59;;;19.46;69.55
41306;BME280;27051;50.376;19.152;2022-09-09T06:46:27;98009.55;;;19.53;69.56
41306;BME280;27051;50.376;19.152;2022-09-09T06:48:55;98006.02;;;19.56;69.15
41306;BME280;27051;50.376;19.152;2022-09-09T06:51:25;98012.19;;;19.64;69.21
41306;BME280;27051;50.376;19.152;2022-09-09T06:53:55;98010.80;;;19.75;68.87
41306;BME280;27051;50.376;19.152;2022-09-09T06:56:29;98010.80;;;19.75;68.87
41306;BME280;27051;50.376;19.152;2022-09-09T06:58:58;98013.09;;;19.80;69.23
41306;BME280;27051;50.376;19.152;2022-09-09T07:01:28;98012.40;;;19.91;68.79
41306;BME280;27051;50.376;19.152;2022-09-09T07:03:57;98013.86;;;20.03;68.62
41306;BME280;27051;50.376;19.152;2022-09-09T07:06:29;98013.76;;;20.13;68.68
41306;BME280;27051;50.376;19.152;2022-09-09T07:09:02;98008.61;;;20.23;68.09
41306;BME280;27051;50.376;19.152;2022-09-09T07:11:33;98008.73;;;20.27;67.93
41306;BME280;27051;50.376;19.152;2022-09-09T07:14:05;98010.63;;;20.34;67.85
41306;BME280;27051;50.376;19.152;2022-09-09T07:16:31;98004.41;;;20.33;67.76
41306;BME280;27051;50.376;19.152;2022-09-09T07:18:59;98002.55;;;20.42;67.83
41306;BME280;27051;50.376;19.152;2022-09-09T07:21:28;98010.04;;;20.53;67.71
41306;BME280;27051;50.376;19.152;2022-09-09T07:23:56;97999.24;;;20.62;67.63
41306;BME280;27051;50.376;19.152;2022-09-09T07:26:25;98002.61;;;20.73;67.37
41306;BME280;27051;50.376;19.152;2022-09-09T07:28:54;97995.78;;;20.88;66.75
41306;BME280;27051;50.376;19.152;2022-09-09T07:31:27;97988.95;;;20.88;66.41
41306;BME280;27051;50.376;19.152;2022-09-09T07:33:55;97990.97;;;20.99;66.29
41306;BME280;27051;50.376;19.152;2022-09-09T07:36:28;97994.38;;;21.07;66.17
41306;BME280;27051;50.376;19.152;2022-09-09T07:39:02;97991.95;;;21.13;66.16
41306;BME280;27051;50.376;19.152;2022-09-09T07:44:08;97990.72;;;21.17;66.12
41306;BME280;27051;50.376;19.152;2022-09-09T07:46:37;97994.89;;;21.25;65.59
41306;BME280;27051;50.376;19.152;2022-09-09T07:56:18;97998.69;;;21.47;64.96
41306;BME280;27051;50.376;19.152;2022-09-09T07:58:46;97999.84;;;21.61;64.06
41306;BME280;27051;50.376;19.152;2022-09-09T08:01:19;98006.51;;;21.72;64.04
41306;BME280;27051;50.376;19.152;2022-09-09T08:03:46;98002.70;;;21.89;63.93
41306;BME280;27051;50.376;19.152;2022-09-09T08:06:13;98007.47;;;22.09;64.21
41306;BME280;27051;50.376;19.152;2022-09-09T08:08:40;98018.05;;;22.30;63.32
41306;BME280;27051;50.376;19.152;2022-09-09T08:11:10;98020.41;;;22.52;63.19
41306;BME280;27051;50.376;19.152;2022-09-09T08:13:39;98020.33;;;22.75;62.56
41306;BME280;27051;50.376;19.152;2022-09-09T08:16:11;98024.20;;;22.98;62.02
41306;BME280;27051;50.376;19.152;2022-09-09T08:18:44;98024.79;;;23.26;61.49
41306;BME280;27051;50.376;19.152;2022-09-09T08:21:13;98019.92;;;23.50;61.07
41306;BME280;27051;50.376;19.152;2022-09-09T08:23:47;98023.62;;;23.59;59.85
41306;BME280;27051;50.376;19.152;2022-09-09T08:26:19;98022.62;;;23.78;60.30
41306;BME280;27051;50.376;19.152;2022-09-09T08:28:47;98021.00;;;23.97;60.12
41306;BME280;27051;50.376;19.152;2022-09-09T08:31:20;98028.77;;;24.07;60.05
41306;BME280;27051;50.376;19.152;2022-09-09T08:33:49;98026.17;;;24.24;59.44
41306;BME280;27051;50.376;19.152;2022-09-09T08:36:19;98026.94;;;24.33;59.14
41306;BME280;27051;50.376;19.152;2022-09-09T08:38:48;98030.16;;;24.44;58.70
41306;BME280;27051;50.376;19.152;2022-09-09T08:41:31;98031.80;;;24.41;58.25
41306;BME280;27051;50.376;19.152;2022-09-09T08:47:11;98023.67;;;24.67;57.86
41306;BME280;27051;50.376;19.152;2022-09-09T08:53:00;98020.44;;;24.98;57.50
41306;BME280;27051;50.376;19.152;2022-09-09T08:55:55;98023.97;;;25.11;56.99
41306;BME280;27051;50.376;19.152;2022-09-09T09:00:57;98029.91;;;25.30;56.41
41306;BME280;27051;50.376;19.152;2022-09-09T09:06:25;98019.30;;;25.37;54.86
41306;BME280;27051;50.376;19.152;2022-09-09T09:11:53;98015.55;;;25.44;54.73
41306;BME280;27051;50.376;19.152;2022-09-09T09:14:23;98019.30;;;25.50;54.23
41306;BME280;27051;50.376;19.152;2022-09-09T09:19:28;98016.89;;;25.69;54.21
41306;BME280;27051;50.376;19.152;2022-09-09T09:27:35;98025.00;;;26.11;52.90
41306;BME280;27051;50.376;19.152;2022-09-09T09:30:19;98022.59;;;26.18;52.52
41306;BME280;27051;50.376;19.152;2022-09-09T09:32:58;98029.46;;;26.13;51.53
41306;BME280;27051;50.376;19.152;2022-09-09T09:35:26;98030.88;;;26.01;50.92
41306;BME280;27051;50.376;19.152;2022-09-09T09:37:53;98025.65;;;25.98;51.51
41306;BME280;27051;50.376;19.152;2022-09-09T09:40:21;98027.02;;;25.98;51.17
41306;BME280;27051;50.376;19.152;2022-09-09T09:42:57;98031.10;;;25.93;50.78
41306;BME280;27051;50.376;19.152;2022-09-09T09:48:06;98024.19;;;26.06;50.94
41306;BME280;27051;50.376;19.152;2022-09-09T09:50:55;98026.70;;;26.31;50.92
41306;BME280;27051;50.376;19.152;2022-09-09T09:53:32;98023.77;;;26.47;50.25
41306;BME280;27051;50.376;19.152;2022-09-09T09:56:08;98021.45;;;26.63;49.19
41306;BME280;27051;50.376;19.152;2022-09-09T09:58:51;98020.98;;;26.82;49.45
41306;BME280;27051;50.376;19.152;2022-09-09T10:01:29;98015.45;;;27.09;49.14
41306;BME280;27051;50.376;19.152;2022-09-09T10:04:00;98024.37;;;27.44;48.36
41306;BME280;27051;50.376;19.152;2022-09-09T10:06:37;98029.63;;;27.60;47.85
41306;BME280;27051;50.376;19.152;2022-09-09T10:09:20;98023.28;;;27.41;46.63
41306;BME280;27051;50.376;19.152;2022-09-09T10:21:06;98027.03;;;26.99;47.09
41306;BME280;27051;50.376;19.152;2022-09-09T10:23:53;98022.52;;;27.10;47.01
41306;BME280;27051;50.376;19.152;2022-09-09T10:30:18;98028.30;;;27.07;46.01
41306;BME280;27051;50.376;19.152;2022-09-09T10:43:21;98037.91;;;28.74;44.00
41306;BME280;27051;50.376;19.152;2022-09-09T10:49:22;98047.69;;;29.93;43.14
41306;BME280;27051;50.376;19.152;2022-09-09T10:52:14;98048.02;;;29.90;42.59
41306;BME280;27051;50.376;19.152;2022-09-09T10:57:51;98045.91;;;29.80;42.16
41306;BME280;27051;50.376;19.152;2022-09-09T11:00:25;98045.03;;;29.74;41.64
41306;BME280;27051;50.376;19.152;2022-09-09T11:03:04;98048.98;;;29.82;41.71
41306;BME280;27051;50.376;19.152;2022-09-09T11:05:38;98033.05;;;30.16;41.44
41306;BME280;27051;50.376;19.152;2022-09-09T11:08:18;98043.27;;;31.03;40.64
41306;BME280;27051;50.376;19.152;2022-09-09T11:11:04;98040.64;;;32.35;39.42
41306;BME280;27051;50.376;19.152;2022-09-09T11:19:35;98034.69;;;33.20;37.64
41306;BME280;27051;50.376;19.152;2022-09-09T11:22:27;98023.53;;;34.01;36.29
41306;BME280;27051;50.376;19.152;2022-09-09T11:24:54;98037.12;;;34.86;35.35
41306;BME280;27051;50.376;19.152;2022-09-09T11:27:44;98033.96;;;35.61;34.99
41306;BME280;27051;50.376;19.152;2022-09-09T11:33:24;98032.36;;;36.29;33.07
41306;BME280;27051;50.376;19.152;2022-09-09T11:36:23;98041.88;;;36.98;32.39
41306;BME280;27051;50.376;19.152;2022-09-09T11:44:44;98046.03;;;39.73;27.86
41306;BME280;27051;50.376;19.152;2022-09-09T11:47:23;98040.31;;;40.60;25.49
41306;BME280;27051;50.376;19.152;2022-09-09T11:50:06;98028.82;;;41.19;26.18
41306;BME280;27051;50.376;19.152;2022-09-09T11:52:40;98020.98;;;41.40;25.90
41306;BME280;27051;50.376;19.152;2022-09-09T11:55:26;98025.19;;;41.26;24.89
41306;BME280;27051;50.376;19.152;2022-09-09T12:00:31;98022.55;;;40.10;24.54
41306;BME280;27051;50.376;19.152;2022-09-09T12:02:59;98029.13;;;38.75;24.69
41306;BME280;27051;50.376;19.152;2022-09-09T12:05:42;98030.53;;;37.45;25.47
41306;BME280;27051;50.376;19.152;2022-09-09T12:08:09;98017.84;;;36.30;25.82
41306;BME280;27051;50.376;19.152;2022-09-09T12:10:41;98019.08;;;35.54;26.32
41306;BME280;27051;50.376;19.152;2022-09-09T12:13:09;98022.40;;;34.91;26.77
41306;BME280;27051;50.376;19.152;2022-09-09T12:15:49;98026.35;;;35.45;26.75
41306;BME280;27051;50.376;19.152;2022-09-09T12:18:35;98021.02;;;35.99;26.00
41306;BME280;27051;50.376;19.152;2022-09-09T12:29:28;98022.64;;;38.74;24.24
41306;BME280;27051;50.376;19.152;2022-09-09T12:34:46;98019.11;;;39.98;23.62
41306;BME280;27051;50.376;19.152;2022-09-09T12:40:06;98020.70;;;40.00;23.23
41306;BME280;27051;50.376;19.152;2022-09-09T12:42:48;98026.66;;;39.36;23.65
41306;BME280;27051;50.376;19.152;2022-09-09T12:45:19;98024.10;;;38.11;23.74
41306;BME280;27051;50.376;19.152;2022-09-09T12:48:07;98021.34;;;37.99;23.50
41306;BME280;27051;50.376;19.152;2022-09-09T12:50:37;98025.97;;;38.91;23.56
41306;BME280;27051;50.376;19.152;2022-09-09T12:53:14;98024.97;;;38.44;23.97
41306;BME280;27051;50.376;19.152;2022-09-09T12:55:48;98027.70;;;37.75;23.96
41306;BME280;27051;50.376;19.152;2022-09-09T12:58:11;98022.64;;;37.61;23.78
41306;BME280;27051;50.376;19.152;2022-09-09T13:00:49;98026.07;;;37.97;23.42
41306;BME280;27051;50.376;19.152;2022-09-09T13:03:20;98031.46;;;38.90;23.07
41306;BME280;27051;50.376;19.152;2022-09-09T13:05:47;98020.05;;;39.54;22.75
41306;BME280;27051;50.376;19.152;2022-09-09T13:08:15;98020.08;;;39.93;22.55
41306;BME280;27051;50.376;19.152;2022-09-09T13:11:00;98017.89;;;40.13;22.62
41306;BME280;27051;50.376;19.152;2022-09-09T13:13:39;98021.67;;;40.29;22.55
41306;BME280;27051;50.376;19.152;2022-09-09T13:16:28;98025.59;;;39.79;22.59
41306;BME280;27051;50.376;19.152;2022-09-09T13:19:07;98024.75;;;39.25;22.48
41306;BME280;27051;50.376;19.152;2022-09-09T13:21:36;98019.82;;;38.48;22.71
41306;BME280;27051;50.376;19.152;2022-09-09T13:24:05;98015.89;;;38.26;23.04
41306;BME280;27051;50.376;19.152;2022-09-09T13:26:34;98014.59;;;37.95;23.60
41306;BME280;27051;50.376;19.152;2022-09-09T13:29:19;98012.66;;;37.97;23.30
41306;BME280;27051;50.376;19.152;2022-09-09T13:31:44;98005.06;;;37.61;23.45
41306;BME280;27051;50.376;19.152;2022-09-09T13:37:02;98001.39;;;37.29;24.03
41306;BME280;27051;50.376;19.152;2022-09-09T13:39:34;97990.27;;;36.46;24.54
41306;BME280;27051;50.376;19.152;2022-09-09T13:42:03;97995.13;;;35.93;24.51
41306;BME280;27051;50.376;19.152;2022-09-09T13:44:33;97988.55;;;35.10;24.93
41306;BME280;27051;50.376;19.152;2022-09-09T13:47:05;97986.73;;;34.68;25.20
41306;BME280;27051;50.376;19.152;2022-09-09T13:49:33;97987.66;;;34.25;25.78
41306;BME280;27051;50.376;19.152;2022-09-09T13:52:11;97982.24;;;34.05;25.98
41306;BME280;27051;50.376;19.152;2022-09-09T13:54:40;97987.66;;;33.71;26.27
41306;BME280;27051;50.376;19.152;2022-09-09T13:57:30;97976.58;;;32.76;26.45
41306;BME280;27051;50.376;19.152;2022-09-09T13:59:57;97976.58;;;32.76;26.45
41306;BME280;27051;50.376;19.152;2022-09-09T14:02:24;97983.97;;;32.53;27.72
41306;BME280;27051;50.376;19.152;2022-09-09T14:04:50;97980.36;;;32.26;27.54
41306;BME280;27051;50.376;19.152;2022-09-09T14:07:18;97980.66;;;32.18;27.95
41306;BME280;27051;50.376;19.152;2022-09-09T14:09:45;97976.84;;;32.15;28.30
41306;BME280;27051;50.376;19.152;2022-09-09T14:12:12;97978.78;;;31.89;28.23
41306;BME280;27051;50.376;19.152;2022-09-09T14:14:39;97983.36;;;31.71;28.37
41306;BME280;27051;50.376;19.152;2022-09-09T14:17:05;97976.67;;;31.28;28.64
41306;BME280;27051;50.376;19.152;2022-09-09T14:19:32;97973.56;;;30.90;29.24
41306;BME280;27051;50.376;19.152;2022-09-09T14:21:59;97965.80;;;30.65;29.79
41306;BME280;27051;50.376;19.152;2022-09-09T14:24:26;97966.42;;;30.49;30.28
41306;BME280;27051;50.376;19.152;2022-09-09T14:26:54;97964.55;;;30.36;30.64
41306;BME280;27051;50.376;19.152;2022-09-09T14:29:21;97964.63;;;30.27;31.26
41306;BME280;27051;50.376;19.152;2022-09-09T14:31:48;97957.09;;;30.23;31.00
41306;BME280;27051;50.376;19.152;2022-09-09T14:34:14;97957.19;;;30.33;31.06
41306;BME280;27051;50.376;19.152;2022-09-09T14:36:41;97958.34;;;30.41;31.36
41306;BME280;27051;50.376;19.152;2022-09-09T14:39:08;97958.20;;;30.70;31.54
41306;BME280;27051;50.376;19.152;2022-09-09T14:41:34;97957.79;;;30.97;31.55
41306;BME280;27051;50.376;19.152;2022-09-09T14:44:01;97957.22;;;31.18;31.71
41306;BME280;27051;50.376;19.152;2022-09-09T14:46:28;97960.22;;;31.34;31.57
41306;BME280;27051;50.376;19.152;2022-09-09T14:48:55;97961.53;;;31.29;31.30
41306;BME280;27051;50.376;19.152;2022-09-09T14:51:23;97956.91;;;31.05;31.35
41306;BME280;27051;50.376;19.152;2022-09-09T14:53:53;97960.03;;;30.88;31.66
41306;BME280;27051;50.376;19.152;2022-09-09T14:56:22;97951.59;;;30.67;31.94
41306;BME280;27051;50.376;19.152;2022-09-09T14:58:53;97949.69;;;30.44;32.02
41306;BME280;27051;50.376;19.152;2022-09-09T15:01:20;97954.75;;;30.06;31.50
41306;BME280;27051;50.376;19.152;2022-09-09T15:03:50;97955.66;;;29.64;32.14
41306;BME280;27051;50.376;19.152;2022-09-09T15:06:20;97956.56;;;29.42;32.51
41306;BME280;27051;50.376;19.152;2022-09-09T15:08:49;97953.94;;;29.10;32.68
41306;BME280;27051;50.376;19.152;2022-09-09T15:11:18;97963.38;;;28.85;32.59
41306;BME280;27051;50.376;19.152;2022-09-09T15:13:45;97961.86;;;28.74;32.89
41306;BME280;27051;50.376;19.152;2022-09-09T15:16:17;97965.30;;;28.60;33.10
41306;BME280;27051;50.376;19.152;2022-09-09T15:18:46;97964.54;;;28.50;33.05
41306;BME280;27051;50.376;19.152;2022-09-09T15:21:15;97958.38;;;28.19;33.02
41306;BME280;27051;50.376;19.152;2022-09-09T15:23:43;97962.86;;;28.07;33.56
41306;BME280;27051;50.376;19.152;2022-09-09T15:26:11;97959.78;;;28.05;34.06
41306;BME280;27051;50.376;19.152;2022-09-09T15:28:38;97960.98;;;27.85;34.12
41306;BME280;27051;50.376;19.152;2022-09-09T15:31:09;97959.69;;;27.54;34.51
41306;BME280;27051;50.376;19.152;2022-09-09T15:33:36;97960.55;;;27.37;35.25
41306;BME280;27051;50.376;19.152;2022-09-09T15:36:18;97952.67;;;27.17;34.73
41306;BME280;27051;50.376;19.152;2022-09-09T15:38:46;97960.52;;;26.97;35.86
41306;BME280;27051;50.376;19.152;2022-09-09T15:41:15;97963.34;;;26.75;35.87
41306;BME280;27051;50.376;19.152;2022-09-09T15:43:47;97960.95;;;26.59;36.29